createdAt,value
2018-06-02T00:01:06.043Z,45.20
2018-06-02T00:03:33.460Z,47.33
2018-06-02T00:06:00.872Z,47.57
2018-06-02T00:08:28.252Z,47.60
2018-06-02T00:10:55.686Z,46.50
2018-06-02T00:13:23.049Z,45.50
2018-06-02T00:15:50.405Z,45.47
2018-06-02T00:18:17.799Z,44.77
2018-06-02T00:20:45.230Z,46.93
2018-06-02T00:23:12.590Z,48.27
2018-06-02T00:25:40.030Z,44.83
2018-06-02T00:28:07.447Z,45.30
2018-06-02T00:30:34.836Z,45.10
2018-06-02T00:33:02.240Z,45.60
2018-06-02T00:35:29.659Z,44.20
2018-06-02T00:37:57.101Z,44.17
2018-06-02T00:40:24.570Z,42.37
2018-06-02T00:42:52.028Z,43.07
2018-06-02T00:45:19.418Z,44.33
2018-06-02T00:47:46.827Z,45.80
2018-06-02T00:50:14.219Z,45.70
2018-06-02T00:52:41.626Z,46.10
2018-06-02T00:55:09.495Z,46.20
2018-06-02T00:57:36.898Z,45.23
2018-06-02T01:00:04.360Z,44.33
2018-06-02T01:02:31.766Z,47.13
2018-06-02T01:04:59.114Z,44.10
2018-06-02T01:07:26.516Z,45.40
2018-06-02T01:09:53.888Z,47.67
2018-06-02T01:12:21.263Z,45.87
2018-06-02T01:14:48.796Z,47.40
2018-06-02T01:17:16.146Z,46.70
2018-06-02T01:19:43.537Z,48.30
2018-06-02T01:22:10.973Z,47.20
2018-06-02T01:24:38.335Z,46.47
2018-06-02T01:27:05.757Z,44.47
2018-06-02T01:29:33.106Z,45.13
2018-06-02T01:32:00.490Z,45.07
2018-06-02T01:34:27.872Z,48.53
2018-06-02T01:36:55.287Z,44.67
2018-06-02T01:39:22.711Z,44.57
2018-06-02T01:41:50.214Z,46.50
2018-06-02T01:44:17.669Z,48.17
2018-06-02T01:46:45.060Z,47.90
2018-06-02T01:49:12.486Z,47.97
2018-06-02T01:51:39.889Z,47.10
2018-06-02T01:54:07.268Z,47.77
2018-06-02T01:56:34.661Z,49.50
2018-06-02T01:59:02.086Z,48.63
2018-06-02T02:01:29.474Z,49.47
2018-06-02T02:03:56.913Z,49.87
2018-06-02T02:06:24.341Z,49.87
2018-06-02T02:08:51.748Z,49.43
2018-06-02T02:11:19.104Z,50.13
2018-06-02T02:13:46.463Z,50.07
2018-06-02T02:16:13.858Z,51.30
2018-06-02T02:18:41.317Z,48.23
2018-06-02T02:21:08.736Z,49.93
2018-06-02T02:23:36.129Z,51.00
2018-06-02T02:26:03.497Z,50.00
2018-06-02T02:28:30.968Z,47.57
2018-06-02T02:30:59.120Z,50.90
2018-06-02T02:33:26.535Z,50.70
2018-06-02T02:35:53.918Z,50.13
2018-06-02T02:38:21.350Z,50.97
2018-06-02T02:40:48.841Z,51.67
2018-06-02T02:43:16.237Z,50.40
2018-06-02T02:45:43.655Z,51.87
2018-06-02T02:48:11.111Z,49.13
2018-06-02T02:50:44.174Z,50.67
2018-06-02T02:53:15.216Z,51.80
2018-06-02T02:55:42.628Z,49.77
2018-06-02T02:58:10.012Z,49.90
2018-06-02T03:00:37.428Z,50.10
2018-06-02T03:03:04.810Z,51.10
2018-06-02T03:05:32.237Z,49.80
2018-06-02T03:07:59.609Z,48.80
2018-06-02T03:10:26.995Z,48.80
2018-06-02T03:12:54.389Z,47.17
2018-06-02T03:15:21.824Z,48.60
2018-06-02T03:17:49.182Z,50.10
2018-06-02T03:20:16.619Z,50.00
2018-06-02T03:22:43.980Z,48.53
2018-06-02T03:25:12.356Z,48.97
2018-06-02T03:27:39.751Z,48.60
2018-06-02T03:30:07.108Z,47.77
2018-06-02T03:32:34.548Z,45.83
2018-06-02T03:35:01.936Z,46.43
2018-06-02T03:37:29.390Z,44.13
2018-06-02T03:39:56.857Z,45.90
2018-06-02T03:42:24.241Z,43.97
2018-06-02T03:44:51.737Z,45.37
2018-06-02T03:47:19.215Z,44.63
2018-06-02T03:49:46.631Z,43.40
2018-06-02T03:52:13.984Z,46.00
2018-06-02T03:54:41.400Z,43.83
2018-06-02T03:57:08.768Z,46.57
2018-06-02T03:59:36.172Z,43.47
2018-06-02T04:02:03.619Z,43.70
2018-06-02T04:04:31.126Z,45.07
2018-06-02T04:06:58.574Z,43.80
2018-06-02T04:09:25.978Z,45.33
2018-06-02T04:11:53.408Z,45.40
2018-06-02T04:14:20.769Z,44.77
2018-06-02T04:16:48.191Z,43.80
2018-06-02T04:19:15.579Z,44.50
2018-06-02T04:21:42.941Z,43.10
2018-06-02T04:24:10.365Z,44.47
2018-06-02T04:26:37.773Z,44.20
2018-06-02T04:29:05.139Z,43.47
2018-06-02T04:31:32.616Z,44.53
2018-06-02T04:34:00.057Z,41.43
2018-06-02T04:36:27.449Z,42.53
2018-06-02T04:38:54.909Z,40.90
2018-06-02T04:41:22.365Z,41.20
2018-06-02T04:43:49.858Z,41.03
2018-06-02T04:46:17.264Z,42.47
2018-06-02T04:48:44.722Z,41.30
2018-06-02T04:51:12.108Z,40.90
2018-06-02T04:53:39.478Z,40.30
2018-06-02T04:56:06.886Z,38.23
2018-06-02T04:58:34.296Z,40.43
2018-06-02T05:01:01.655Z,38.77
2018-06-02T05:03:29.122Z,38.83
2018-06-02T05:05:56.493Z,40.10
2018-06-02T05:08:23.891Z,38.90
2018-06-02T05:10:51.261Z,38.83
2018-06-02T05:13:18.665Z,37.00
2018-06-02T05:15:46.028Z,38.67
2018-06-02T05:18:13.422Z,38.07
2018-06-02T05:20:40.803Z,35.80
2018-06-02T05:23:08.189Z,35.10
2018-06-02T05:25:35.587Z,34.73
2018-06-02T05:28:02.964Z,36.70
2018-06-02T05:30:30.350Z,35.57
2018-06-02T05:32:57.712Z,36.07
2018-06-02T05:35:25.171Z,37.43
2018-06-02T05:37:52.531Z,34.77
2018-06-02T05:40:20.070Z,35.00
2018-06-02T05:42:47.471Z,35.80
2018-06-02T05:45:14.857Z,34.53
2018-06-02T05:47:42.232Z,34.97
2018-06-02T05:50:09.618Z,37.03
2018-06-02T05:52:37.016Z,33.97
2018-06-02T05:55:04.395Z,34.80
2018-06-02T05:57:31.756Z,33.33
2018-06-02T05:59:59.217Z,34.07
2018-06-02T06:02:26.541Z,32.67
2018-06-02T06:04:53.944Z,33.67
2018-06-02T06:07:21.300Z,35.67
2018-06-02T06:09:48.688Z,36.70
2018-06-02T06:12:16.109Z,33.53
2018-06-02T06:14:43.611Z,33.90
2018-06-02T06:17:10.971Z,34.27
2018-06-02T06:19:38.433Z,32.63
2018-06-02T06:22:05.829Z,33.67
2018-06-02T06:24:33.228Z,34.40
2018-06-02T06:27:00.648Z,33.30
2018-06-02T06:29:28.015Z,33.77
2018-06-02T06:31:55.399Z,32.77
2018-06-02T06:34:22.789Z,33.60
2018-06-02T06:36:50.204Z,32.47
2018-06-02T06:39:17.569Z,33.40
2018-06-02T06:41:45.099Z,32.37
2018-06-02T06:44:12.499Z,33.67
2018-06-02T06:46:39.963Z,34.00
2018-06-02T06:49:07.380Z,34.47
2018-06-02T06:51:34.774Z,33.90
2018-06-02T06:54:02.188Z,36.83
2018-06-02T06:56:29.560Z,33.90
2018-06-02T06:58:56.974Z,34.40
2018-06-02T07:01:24.335Z,36.30
2018-06-02T07:03:52.022Z,34.57
2018-06-02T07:06:19.380Z,37.70
2018-06-02T07:08:46.758Z,36.40
2018-06-02T07:11:14.155Z,36.80
2018-06-02T07:13:41.596Z,36.80
2018-06-02T07:16:08.984Z,36.60
2018-06-02T07:18:36.386Z,38.13
2018-06-02T07:21:05.354Z,37.83
2018-06-02T07:23:32.797Z,38.60
2018-06-02T07:26:00.212Z,39.10
2018-06-02T07:28:27.620Z,39.47
2018-06-02T07:30:55.057Z,37.47
2018-06-02T07:33:22.445Z,38.20
2018-06-02T07:35:49.869Z,37.93
2018-06-02T07:38:17.267Z,38.30
2018-06-02T07:40:44.627Z,36.97
2018-06-02T07:43:12.048Z,35.63
2018-06-02T07:45:39.439Z,36.43
2018-06-02T07:48:06.835Z,35.30
2018-06-02T07:50:34.256Z,33.63
2018-06-02T07:53:01.737Z,35.03
2018-06-02T07:55:29.099Z,34.70
2018-06-02T07:57:56.467Z,36.30
2018-06-02T08:00:23.920Z,35.83
2018-06-02T08:02:51.341Z,35.40
2018-06-02T08:05:18.757Z,37.40
2018-06-02T08:07:46.159Z,34.70
2018-06-02T08:10:13.578Z,35.40
2018-06-02T08:12:40.963Z,37.97
2018-06-02T08:15:08.379Z,36.57
2018-06-02T08:17:35.843Z,35.40
2018-06-02T08:20:03.243Z,37.33
2018-06-02T08:22:30.637Z,36.70
2018-06-02T08:24:58.029Z,37.00
2018-06-02T08:27:25.445Z,35.93
2018-06-02T08:29:52.804Z,36.67
2018-06-02T08:32:20.201Z,35.80
2018-06-02T08:34:47.585Z,38.40
2018-06-02T08:37:15.013Z,37.30
2018-06-02T08:39:42.370Z,36.17
2018-06-02T08:42:09.732Z,37.60
2018-06-02T08:44:37.119Z,36.10
2018-06-02T08:47:04.467Z,36.20
2018-06-02T08:49:31.891Z,36.80
2018-06-02T08:51:59.289Z,37.03
2018-06-02T08:54:26.709Z,36.80
2018-06-02T08:56:54.062Z,38.47
2018-06-02T08:59:21.476Z,37.60
2018-06-02T09:01:48.890Z,37.70
2018-06-02T09:04:16.247Z,38.30
2018-06-02T09:06:43.620Z,37.27
2018-06-02T09:09:11.048Z,36.73
2018-06-02T09:11:38.441Z,35.97
2018-06-02T09:14:05.795Z,36.33
2018-06-02T09:16:33.208Z,37.50
2018-06-02T09:19:00.644Z,36.17
2018-06-02T09:21:28.029Z,35.90
2018-06-02T09:23:55.432Z,37.67
2018-06-02T09:26:22.783Z,36.57
2018-06-02T09:28:50.203Z,34.37
2018-06-02T09:31:17.578Z,35.40
2018-06-02T09:33:44.934Z,33.23
2018-06-02T09:36:12.372Z,33.73
2018-06-02T09:38:39.785Z,33.77
2018-06-02T09:41:07.130Z,32.70
2018-06-02T09:43:34.535Z,33.77
2018-06-02T09:46:01.930Z,34.37
2018-06-02T09:48:30.286Z,31.27
2018-06-02T09:50:57.690Z,34.10
2018-06-02T09:53:29.074Z,32.03
2018-06-02T09:55:56.493Z,31.43
2018-06-02T09:58:23.906Z,27.83
2018-06-02T10:00:51.277Z,29.97
2018-06-02T10:03:18.672Z,31.47
2018-06-02T10:05:46.032Z,32.13
2018-06-02T10:08:13.456Z,30.50
2018-06-02T10:10:40.853Z,29.23
2018-06-02T10:13:08.269Z,23.57
2018-06-02T10:15:35.661Z,32.13
2018-06-02T10:18:03.100Z,36.90
2018-06-02T10:20:30.691Z,36.37
2018-06-02T10:22:58.068Z,38.00
2018-06-02T10:25:25.465Z,38.50
2018-06-02T10:27:52.871Z,39.53
2018-06-02T10:30:20.265Z,40.70
2018-06-02T10:32:47.634Z,42.13
2018-06-02T10:35:15.066Z,43.33
2018-06-02T10:37:42.501Z,45.10
2018-06-02T10:40:09.948Z,44.43
2018-06-02T10:42:37.380Z,44.00
2018-06-02T10:45:04.883Z,43.97
2018-06-02T10:47:32.252Z,44.57
2018-06-02T10:49:59.656Z,42.37
2018-06-02T10:52:27.035Z,45.07
2018-06-02T10:54:54.415Z,47.07
2018-06-02T10:57:21.806Z,42.80
2018-06-02T10:59:49.218Z,44.43
2018-06-02T11:02:16.589Z,42.70
2018-06-02T11:04:44.008Z,38.97
2018-06-02T11:07:11.373Z,39.70
2018-06-02T11:09:38.806Z,38.97
2018-06-02T11:12:06.165Z,40.40
2018-06-02T11:14:33.555Z,38.33
2018-06-02T11:17:00.945Z,38.37
2018-06-02T11:19:28.352Z,39.77
2018-06-02T11:21:55.752Z,36.73
2018-06-02T11:24:23.171Z,38.57
2018-06-02T11:26:50.531Z,39.10
2018-06-02T11:29:17.961Z,36.33
2018-06-02T11:31:45.346Z,36.23
2018-06-02T11:34:12.711Z,34.90
2018-06-02T11:36:40.246Z,35.70
2018-06-02T11:39:07.783Z,37.70
2018-06-02T11:41:35.205Z,35.10
2018-06-02T11:44:02.635Z,37.50
2018-06-02T11:46:30.068Z,34.60
2018-06-02T11:48:57.451Z,34.67
2018-06-02T11:51:24.814Z,37.20
2018-06-02T11:53:52.358Z,34.87
2018-06-02T11:56:19.764Z,38.00
2018-06-02T11:58:47.223Z,38.53
2018-06-02T12:01:14.634Z,37.60
2018-06-02T12:03:41.994Z,38.90
2018-06-02T12:06:09.361Z,35.90
2018-06-02T12:08:36.766Z,37.83
2018-06-02T12:11:04.227Z,37.97
2018-06-02T12:13:31.619Z,38.77
2018-06-02T12:15:58.979Z,37.63
2018-06-02T12:18:26.379Z,37.47
2018-06-02T12:20:53.870Z,35.97
2018-06-02T12:23:21.328Z,36.40
2018-06-02T12:25:48.751Z,34.73
2018-06-02T12:28:16.131Z,34.50
2018-06-02T12:30:43.545Z,34.43
2018-06-02T12:33:10.931Z,33.50
2018-06-02T12:35:38.404Z,31.30
2018-06-02T12:38:05.754Z,30.77
2018-06-02T12:40:33.118Z,27.87
2018-06-02T12:43:00.541Z,27.63
2018-06-02T12:45:27.941Z,28.47
2018-06-02T12:47:55.360Z,28.10
2018-06-02T12:50:22.715Z,27.67
2018-06-02T12:52:50.137Z,26.87
2018-06-02T12:55:17.564Z,28.53
2018-06-02T12:57:44.960Z,27.90
2018-06-02T13:00:12.435Z,30.27
2018-06-02T13:02:39.867Z,28.73
2018-06-02T13:05:07.301Z,29.63
2018-06-02T13:07:34.739Z,30.27
2018-06-02T13:10:02.171Z,30.43
2018-06-02T13:12:29.648Z,31.07
2018-06-02T13:14:57.040Z,29.50
2018-06-02T13:17:24.470Z,28.37
2018-06-02T13:19:51.834Z,27.90
2018-06-02T13:22:19.258Z,24.60
2018-06-02T13:24:46.616Z,24.33
2018-06-02T13:27:14.053Z,27.70
2018-06-02T13:29:41.481Z,28.43
2018-06-02T13:32:08.838Z,27.83
2018-06-02T13:34:36.278Z,26.87
2018-06-02T13:37:03.782Z,27.47
2018-06-02T13:39:31.206Z,27.83
2018-06-02T13:41:58.581Z,27.77
2018-06-02T13:44:25.998Z,28.60
2018-06-02T13:46:53.350Z,27.33
2018-06-02T13:49:20.709Z,26.53
2018-06-02T13:51:48.103Z,25.90
2018-06-02T13:54:15.530Z,25.00
2018-06-02T13:56:42.919Z,26.70
2018-06-02T13:59:10.281Z,26.00
2018-06-02T14:01:37.764Z,26.23
2018-06-02T14:04:05.185Z,27.20
2018-06-02T14:06:32.589Z,27.37
2018-06-02T14:08:59.985Z,27.87
2018-06-02T14:11:27.335Z,26.70
2018-06-02T14:13:54.736Z,27.83
2018-06-02T14:16:22.149Z,27.40
2018-06-02T14:18:49.549Z,26.07
2018-06-02T14:21:16.950Z,25.20
2018-06-02T14:23:44.355Z,26.33
2018-06-02T14:26:11.825Z,25.80
2018-06-02T14:28:39.228Z,25.00
2018-06-02T14:31:06.622Z,24.20
2018-06-02T14:33:34.020Z,24.53
2018-06-02T14:36:01.430Z,23.43
2018-06-02T14:38:28.796Z,23.50
2018-06-02T14:40:56.234Z,24.20
2018-06-02T14:43:23.632Z,23.57
2018-06-02T14:45:51.099Z,25.17
2018-06-02T14:48:18.513Z,22.03
2018-06-02T14:50:45.876Z,25.10
2018-06-02T14:53:13.307Z,26.10
2018-06-02T14:55:40.734Z,25.97
2018-06-02T14:58:08.133Z,25.20
2018-06-02T15:00:35.603Z,26.17
2018-06-02T15:03:03.015Z,25.07
2018-06-02T15:05:30.388Z,24.33
2018-06-02T15:07:57.796Z,23.53
2018-06-02T15:10:25.157Z,23.87
2018-06-02T15:12:52.575Z,23.90
2018-06-02T15:15:19.944Z,23.20
2018-06-02T15:17:47.456Z,22.10
2018-06-02T15:20:14.837Z,21.87
2018-06-02T15:22:42.321Z,23.63
2018-06-02T15:25:09.746Z,22.67
2018-06-02T15:27:37.192Z,23.17
2018-06-02T15:30:04.612Z,21.00
2018-06-02T15:32:32.015Z,22.27
2018-06-02T15:34:59.372Z,22.30
2018-06-02T15:37:26.751Z,24.10
2018-06-02T15:39:54.207Z,25.23
2018-06-02T15:42:21.631Z,27.30
2018-06-02T15:44:49.029Z,24.40
2018-06-02T15:47:16.389Z,24.40
2018-06-02T15:49:43.778Z,24.53
2018-06-02T15:52:11.171Z,24.17
2018-06-02T15:54:38.556Z,23.63
2018-06-02T15:57:06.070Z,22.73
2018-06-02T15:59:33.461Z,24.27
2018-06-02T16:02:00.984Z,23.60
2018-06-02T16:04:28.353Z,24.37
2018-06-02T16:06:55.739Z,22.60
2018-06-02T16:09:23.715Z,24.03
2018-06-02T16:11:51.221Z,22.37
2018-06-02T16:14:18.644Z,21.03
2018-06-02T16:16:46.053Z,21.17
2018-06-02T16:19:13.411Z,21.50
2018-06-02T16:21:40.879Z,20.80
2018-06-02T16:24:08.269Z,20.77
2018-06-02T16:26:35.703Z,20.30
2018-06-02T16:29:03.109Z,21.50
2018-06-02T16:31:30.544Z,21.33
2018-06-02T16:33:57.986Z,22.47
2018-06-02T16:36:25.444Z,22.00
2018-06-02T16:38:52.852Z,21.10
2018-06-02T16:41:20.297Z,21.80
2018-06-02T16:43:47.664Z,20.40
2018-06-02T16:46:15.109Z,21.10
2018-06-02T16:48:42.464Z,22.93
2018-06-02T16:51:09.904Z,22.77
2018-06-02T16:53:37.306Z,22.90
2018-06-02T16:56:04.704Z,21.40
2018-06-02T16:58:32.135Z,23.57
2018-06-02T17:00:59.499Z,24.90
2018-06-02T17:03:26.853Z,24.10
2018-06-02T17:05:54.277Z,22.80
2018-06-02T17:08:21.705Z,23.63
2018-06-02T17:10:49.132Z,21.77
2018-06-02T17:13:16.574Z,23.30
2018-06-02T17:15:43.956Z,24.53
2018-06-02T17:18:11.465Z,23.53
2018-06-02T17:20:38.995Z,24.50
2018-06-02T17:23:06.424Z,24.20
2018-06-02T17:25:33.788Z,23.37
2018-06-02T17:28:01.270Z,23.90
2018-06-02T17:30:28.663Z,25.03
2018-06-02T17:32:56.068Z,25.73
2018-06-02T17:35:23.420Z,24.47
2018-06-02T17:37:50.837Z,25.43
2018-06-02T17:40:18.203Z,26.77
2018-06-02T17:42:45.619Z,25.10
2018-06-02T17:45:12.989Z,25.27
2018-06-02T17:47:40.404Z,26.30
2018-06-02T17:50:07.832Z,25.00
2018-06-02T17:52:35.226Z,25.10
2018-06-02T17:55:02.609Z,25.07
2018-06-02T17:57:30.021Z,26.30
2018-06-02T17:59:57.444Z,25.87
2018-06-02T18:02:24.836Z,26.00
2018-06-02T18:04:52.248Z,26.10
2018-06-02T18:07:19.760Z,26.53
2018-06-02T18:09:47.241Z,26.13
2018-06-02T18:12:14.628Z,26.57
2018-06-02T18:14:42.026Z,25.57
2018-06-02T18:17:09.415Z,25.03
2018-06-02T18:19:36.778Z,26.73
2018-06-02T18:22:04.165Z,26.57
2018-06-02T18:24:31.596Z,30.07
2018-06-02T18:26:58.992Z,35.23
2018-06-02T18:29:26.429Z,40.97
2018-06-02T18:31:53.824Z,41.60
2018-06-02T18:34:21.222Z,42.27
2018-06-02T18:36:48.586Z,44.67
2018-06-02T18:39:16.004Z,45.00
2018-06-02T18:41:43.363Z,45.10
2018-06-02T18:44:10.724Z,46.70
2018-06-02T18:46:38.157Z,49.90
2018-06-02T18:49:05.548Z,45.93
2018-06-02T18:51:32.898Z,47.67
2018-06-02T18:54:00.316Z,42.27
2018-06-02T18:56:27.727Z,45.50
2018-06-02T18:58:55.115Z,47.20
2018-06-02T19:01:22.543Z,43.73
2018-06-02T19:03:49.957Z,43.20
2018-06-02T19:06:17.324Z,43.70
2018-06-02T19:08:44.726Z,41.77
2018-06-02T19:11:12.112Z,43.40
2018-06-02T19:13:39.531Z,43.87
2018-06-02T19:16:06.924Z,42.00
2018-06-02T19:18:34.325Z,40.93
2018-06-02T19:21:01.721Z,39.40
2018-06-02T19:23:29.103Z,42.83
2018-06-02T19:25:56.555Z,42.30
2018-06-02T19:28:23.941Z,40.73
2018-06-02T19:30:51.325Z,39.73
2018-06-02T19:33:18.746Z,38.43
2018-06-02T19:35:46.100Z,36.47
2018-06-02T19:38:13.499Z,36.40
2018-06-02T19:40:40.874Z,35.10
2018-06-02T19:43:08.332Z,37.10
2018-06-02T19:45:35.718Z,31.80
2018-06-02T19:48:03.125Z,35.77
2018-06-02T19:50:30.515Z,34.87
2018-06-02T19:52:57.911Z,35.03
2018-06-02T19:55:25.311Z,35.07
2018-06-02T19:57:52.669Z,35.00
2018-06-02T20:00:20.089Z,36.10
2018-06-02T20:02:47.504Z,34.30
2018-06-02T20:05:14.854Z,32.90
2018-06-02T20:07:42.208Z,36.53
2018-06-02T20:10:09.623Z,33.43
2018-06-02T20:12:37.011Z,34.30
2018-06-02T20:15:04.493Z,32.97
2018-06-02T20:17:31.949Z,33.87
2018-06-02T20:19:59.349Z,35.43
2018-06-02T20:22:26.738Z,33.30
2018-06-02T20:24:54.107Z,33.10
2018-06-02T20:27:21.513Z,32.50
2018-06-02T20:29:48.884Z,31.77
2018-06-02T20:32:16.313Z,31.30
2018-06-02T20:34:43.732Z,32.00
2018-06-02T20:37:11.122Z,30.37
2018-06-02T20:39:38.618Z,30.63
2018-06-02T20:42:05.985Z,27.50
2018-06-02T20:44:33.335Z,30.40
2018-06-02T20:47:00.781Z,30.30
2018-06-02T20:49:28.185Z,30.27
2018-06-02T20:51:55.548Z,28.43
2018-06-02T20:54:22.988Z,29.00
2018-06-02T20:56:50.377Z,31.40
2018-06-02T20:59:17.808Z,31.03
2018-06-02T21:01:45.239Z,30.70
2018-06-02T21:04:12.778Z,29.97
2018-06-02T21:06:40.233Z,30.30
2018-06-02T21:09:07.632Z,28.53
2018-06-02T21:11:35.042Z,29.77
2018-06-02T21:14:02.447Z,29.43
2018-06-02T21:16:29.860Z,28.17
2018-06-02T21:18:57.252Z,28.87
2018-06-02T21:21:25.394Z,27.27
2018-06-02T21:23:52.761Z,29.90
2018-06-02T21:26:20.159Z,29.10
2018-06-02T21:28:47.511Z,31.10
2018-06-02T21:31:14.934Z,31.57
2018-06-02T21:33:42.409Z,30.33
2018-06-02T21:36:09.828Z,31.17
2018-06-02T21:38:37.308Z,30.20
2018-06-02T21:41:04.737Z,32.00
2018-06-02T21:43:32.085Z,32.03
2018-06-02T21:45:59.462Z,32.47
2018-06-02T21:48:26.850Z,33.67
2018-06-02T21:50:54.276Z,33.10
2018-06-02T21:53:21.660Z,32.57
2018-06-02T21:55:49.177Z,31.77
2018-06-02T21:58:16.580Z,34.80
2018-06-02T22:00:43.948Z,32.97
2018-06-02T22:03:11.477Z,31.67
2018-06-02T22:05:38.838Z,33.03
2018-06-02T22:08:06.232Z,34.17
2018-06-02T22:10:33.641Z,34.90
2018-06-02T22:13:01.023Z,32.77
2018-06-02T22:15:28.413Z,35.37
2018-06-02T22:17:55.911Z,34.83
2018-06-02T22:20:23.294Z,35.07
2018-06-02T22:22:50.692Z,34.60
2018-06-02T22:25:18.080Z,36.57
2018-06-02T22:27:45.436Z,36.73
2018-06-02T22:30:12.823Z,36.90
2018-06-02T22:32:40.184Z,36.83
2018-06-02T22:35:07.579Z,38.23
2018-06-02T22:37:34.955Z,37.93
2018-06-02T22:40:02.382Z,38.57
2018-06-02T22:42:29.786Z,39.50
2018-06-02T22:44:57.191Z,39.67
2018-06-02T22:47:24.586Z,38.23
2018-06-02T22:49:51.936Z,37.93
2018-06-02T22:52:19.327Z,38.33
2018-06-02T22:54:46.756Z,37.90
2018-06-02T22:57:14.247Z,39.20
2018-06-02T22:59:41.599Z,39.27
2018-06-02T23:02:09.012Z,38.57
2018-06-02T23:04:36.412Z,37.20
2018-06-02T23:07:03.845Z,37.27
2018-06-02T23:09:31.245Z,37.70
2018-06-02T23:11:58.643Z,38.67
2018-06-02T23:14:26.032Z,36.67
2018-06-02T23:16:53.412Z,37.90
2018-06-02T23:19:20.803Z,36.57
2018-06-02T23:21:48.201Z,36.40
2018-06-02T23:24:15.603Z,37.13
2018-06-02T23:26:42.999Z,35.93
2018-06-02T23:29:10.393Z,37.07
2018-06-02T23:31:37.762Z,36.47
2018-06-02T23:34:05.192Z,34.77
2018-06-02T23:36:32.608Z,36.67
2018-06-02T23:38:59.975Z,36.27
2018-06-02T23:41:27.373Z,37.80
2018-06-02T23:43:54.770Z,36.50
2018-06-02T23:46:22.210Z,39.13
2018-06-02T23:48:49.669Z,38.73
2018-06-02T23:51:17.082Z,38.97
2018-06-02T23:53:44.467Z,39.30
2018-06-02T23:56:11.854Z,39.23
2018-06-02T23:58:39.246Z,40.73
